地図

経路データ

SID SEASON NUMBER BASIN SUBBASIN NAME ISO_TIME NATURE LAT LON WMO_WIND WMO_PRES WMO_AGENCY TRACK_TYPE DIST2LAND LANDFALL IFLAG USA_AGENCY USA_ATCF_ID USA_LAT USA_LON USA_RECORD USA_STATUS USA_WIND USA_PRES USA_SSHS USA_R34_NE USA_R34_SE USA_R34_SW USA_R34_NW USA_R50_NE USA_R50_SE USA_R50_SW USA_R50_NW USA_R64_NE USA_R64_SE USA_R64_SW USA_R64_NW USA_POCI USA_ROCI USA_RMW USA_EYE TOKYO_LAT TOKYO_LON TOKYO_GRADE TOKYO_WIND TOKYO_PRES TOKYO_R50_DIR TOKYO_R50_LONG TOKYO_R50_SHORT TOKYO_R30_DIR TOKYO_R30_LONG TOKYO_R30_SHORT TOKYO_LAND CMA_LAT CMA_LON CMA_CAT CMA_WIND CMA_PRES HKO_LAT HKO_LON HKO_CAT HKO_WIND HKO_PRES NEWDELHI_LAT NEWDELHI_LON NEWDELHI_GRADE NEWDELHI_WIND NEWDELHI_PRES NEWDELHI_CI NEWDELHI_DP NEWDELHI_POCI REUNION_LAT REUNION_LON REUNION_TYPE REUNION_WIND REUNION_PRES REUNION_TNUM REUNION_CI REUNION_RMW REUNION_R34_NE REUNION_R34_SE REUNION_R34_SW REUNION_R34_NW REUNION_R50_NE REUNION_R50_SE REUNION_R50_SW REUNION_R50_NW REUNION_R64_NE REUNION_R64_SE REUNION_R64_SW REUNION_R64_NW BOM_LAT BOM_LON BOM_TYPE BOM_WIND BOM_PRES BOM_TNUM BOM_CI BOM_RMW BOM_R34_NE BOM_R34_SE BOM_R34_SW BOM_R34_NW BOM_R50_NE BOM_R50_SE BOM_R50_SW BOM_R50_NW BOM_R64_NE BOM_R64_SE BOM_R64_SW BOM_R64_NW BOM_ROCI BOM_POCI BOM_EYE BOM_POS_METHOD BOM_PRES_METHOD NADI_LAT NADI_LON NADI_CAT NADI_WIND NADI_PRES WELLINGTON_LAT WELLINGTON_LON WELLINGTON_WIND WELLINGTON_PRES DS824_LAT DS824_LON DS824_STAGE DS824_WIND DS824_PRES TD9636_LAT TD9636_LON TD9636_STAGE TD9636_WIND TD9636_PRES TD9635_LAT TD9635_LON TD9635_WIND TD9635_PRES TD9635_ROCI NEUMANN_LAT NEUMANN_LON NEUMANN_CLASS NEUMANN_WIND NEUMANN_PRES MLC_LAT MLC_LON MLC_CLASS MLC_WIND MLC_PRES USA_GUST BOM_GUST BOM_GUST_PER REUNION_GUST REUNION_GUST_PER USA_SEAHGT USA_SEARAD_NE USA_SEARAD_SE USA_SEARAD_SW USA_SEARAD_NW STORM_SPEED STORM_DIR
1901274N08132 1901 34 WP MM NOT_NAMED 1901-09-30 16:00:00 NR 8.30000 132.100 main 609 537 __________O___ -1 8.30000 132.100 7 41 319
1901274N08132 1901 34 WP MM NOT_NAMED 1901-09-30 18:00:00 NR 9.33258 131.196 main 537 438 __________P___ -1 9.33258 131.196 7 40 319
1901274N08132 1901 34 WP MM NOT_NAMED 1901-09-30 21:00:00 NR 10.8064 129.872 main 443 329 __________P___ -1 10.8064 129.872 7 37 318
1901274N08132 1901 34 WP MM NOT_NAMED 1901-10-01 00:00:00 NR 12.0871 128.648 main 329 249 __________P___ -1 12.0871 128.648 7 32 315
1901274N08132 1901 34 WP MM NOT_NAMED 1901-10-01 03:00:00 NR 13.0620 127.599 main 249 230 __________P___ -1 13.0620 127.599 7 27 313
1901274N08132 1901 34 WP MM NOT_NAMED 1901-10-01 04:00:00 NR 13.3000 127.300 main 230 210 __________O___ -1 13.3000 127.300 7 20 306
1901274N08132 1901 34 WP MM NOT_NAMED 1901-10-01 06:00:00 NR 13.6344 126.788 main 210 181 __________P___ -1 13.6344 126.788 7 15 297
1901274N08132 1901 34 WP MM NOT_NAMED 1901-10-01 09:00:00 NR 13.8548 126.189 main 190 140 __________P___ -1 13.8548 126.189 7 11 282
1901274N08132 1901 34 WP MM NOT_NAMED 1901-10-01 12:00:00 NR 13.8657 125.710 main 140 97 __________P___ -1 13.8657 125.710 7 9 267
1901274N08132 1901 34 WP MM NOT_NAMED 1901-10-01 15:00:00 NR 13.8093 125.260 main 97 75 __________P___ -1 13.8093 125.260 7 9 264
1901274N08132 1901 34 WP MM NOT_NAMED 1901-10-01 16:00:00 NR 13.8000 125.100 main 75 32 __________O___ -1 13.8000 125.100 7 11 278
1901274N08132 1901 34 WP MM NOT_NAMED 1901-10-01 18:00:00 NR 13.8917 124.687 main 32 0 __________P___ -1 13.8917 124.687 7 13 283
1901274N08132 1901 34 WP MM NOT_NAMED 1901-10-01 21:00:00 NR 14.0356 124.049 main 10 10 __________P___ -1 14.0356 124.049 7 13 283
1901274N08132 1901 34 WP MM NOT_NAMED 1901-10-02 00:00:00 NR 14.1869 123.410 main 24 11 __________P___ -1 14.1869 123.410 7 13 284
1901274N08132 1901 34 WP MM NOT_NAMED 1901-10-02 03:00:00 NR 14.3455 122.795 main 11 22 __________P___ -1 14.3455 122.795 7 12 285
1901274N08132 1901 34 WP MM NOT_NAMED 1901-10-02 04:00:00 NR 14.4000 122.600 main 22 22 __________O___ -1 14.4000 122.600 4 11 285
1901274N08132 1901 34 WP MM NOT_NAMED 1901-10-02 06:00:00 NR 14.4974 122.230 main 39 10 __________P___ -1 14.4974 122.230 4 11 286
1901274N08132 1901 34 WP MM NOT_NAMED 1901-10-02 09:00:00 NR 14.6499 121.706 main 10 0 __________P___ -1 14.6499 121.706 4 10 288
1901274N08132 1901 34 WP MM NOT_NAMED 1901-10-02 12:00:00 NR 14.8212 121.215 main 0 0 __________P___ -1 14.8212 121.215 4 10 292
1901274N08132 1901 34 WP MM NOT_NAMED 1901-10-02 15:00:00 NR 15.0235 120.750 main 0 0 __________P___ -1 15.0235 120.750 4 10 295
1901274N08132 1901 34 WP MM NOT_NAMED 1901-10-02 16:00:00 NR 15.1000 120.600 main 0 0 __________O___ -1 15.1000 120.600 4 10 294
1901274N08132 1901 34 WP MM NOT_NAMED 1901-10-02 18:00:00 NR 15.2269 120.273 main 0 0 __________P___ -1 15.2269 120.273 4 10 294
1901274N08132 1901 34 WP MM NOT_NAMED 1901-10-02 21:00:00 NR 15.4479 119.801 main 10 15 __________P___ -1 15.4479 119.801 4 10 300
1901274N08132 1901 34 WP MM NOT_NAMED 1901-10-03 00:00:00 NR 15.7388 119.371 main 46 48 __________P___ -1 15.7388 119.371 4 10 312
1901274N08132 1901 34 WP MM NOT_NAMED 1901-10-03 03:00:00 NR 16.1369 119.004 main 75 78 __________P___ -1 16.1369 119.004 4 11 321
1901274N08132 1901 34 WP MM NOT_NAMED 1901-10-03 04:00:00 NR 16.3000 118.900 main 91 91 __________O___ -1 16.3000 118.900 4 13 328
1901274N08132 1901 34 WP MM NOT_NAMED 1901-10-03 06:00:00 NR 16.6936 118.647 main 135 135 __________P___ -1 16.6936 118.647 4 15 333
1901274N08132 1901 34 WP MM NOT_NAMED 1901-10-03 09:00:00 NR 17.3916 118.328 main 201 201 __________P___ -1 17.3916 118.328 4 16 342
1901274N08132 1901 34 WP MM NOT_NAMED 1901-10-03 12:00:00 NR 18.1634 118.139 main 242 242 __________P___ -1 18.1634 118.139 4 16 354
1901274N08132 1901 34 WP MM NOT_NAMED 1901-10-03 15:00:00 NR 18.9469 118.144 main 268 261 __________P___ -1 18.9469 118.144 4 16 3
1901274N08132 1901 34 WP MM NOT_NAMED 1901-10-03 16:00:00 NR 19.2000 118.200 main 268 266 __________O___ -1 19.2000 118.200 4 16 20
1901274N08132 1901 34 WP MM NOT_NAMED 1901-10-03 18:00:00 NR 19.6829 118.435 main 273 243 __________P___ -1 19.6829 118.435 4 17 32
1901274N08132 1901 34 WP MM NOT_NAMED 1901-10-03 21:00:00 NR 20.3889 118.986 main 243 144 __________P___ -1 20.3889 118.986 4 18 40
1901274N08132 1901 34 WP MM NOT_NAMED 1901-10-04 00:00:00 NR 21.0468 119.674 main 144 45 __________P___ -1 21.0468 119.674 4 18 46
1901274N08132 1901 34 WP MM NOT_NAMED 1901-10-04 03:00:00 NR 21.6279 120.381 main 45 15 __________P___ -1 21.6279 120.381 4 17 49
1901274N08132 1901 34 WP MM NOT_NAMED 1901-10-04 04:00:00 NR 21.8000 120.600 main 15 0 __________O___ -1 21.8000 120.600 4 14 48
1901274N08132 1901 34 WP MM NOT_NAMED 1901-10-04 06:00:00 NR 22.0985 120.941 main 0 10 __________P___ -1 22.0985 120.941 4 12 48
1901274N08132 1901 34 WP MM NOT_NAMED 1901-10-04 09:00:00 NR 22.4710 121.414 main 42 42 __________P___ -1 22.4710 121.414 4 11 51
1901274N08132 1901 34 WP MM NOT_NAMED 1901-10-04 12:00:00 NR 22.7896 121.851 main 61 55 __________P___ -1 22.7896 121.851 4 10 52
1901274N08132 1901 34 WP MM NOT_NAMED 1901-10-04 15:00:00 NR 23.0945 122.265 main 92 92 __________P___ -1 23.0945 122.265 4 10 51
1901274N08132 1901 34 WP MM NOT_NAMED 1901-10-04 16:00:00 NR 23.2000 122.400 main 102 102 __________O___ -1 23.2000 122.400 4 10 48
1901274N08132 1901 34 WP MM NOT_NAMED 1901-10-04 18:00:00 NR 23.4279 122.664 main 126 124 __________P___ -1 23.4279 122.664 4 10 46
1901274N08132 1901 34 WP MM NOT_NAMED 1901-10-04 21:00:00 NR 23.7760 123.046 main 136 138 __________P___ -1 23.7760 123.046 4 10 44
1901274N08132 1901 34 WP MM NOT_NAMED 1901-10-05 00:00:00 NR 24.1459 123.433 main 158 163 __________P___ -1 24.1459 123.433 4 11 43
1901274N08132 1901 34 WP MM NOT_NAMED 1901-10-05 03:00:00 NR 24.5532 123.850 main 196 194 __________P___ -1 24.5532 123.850 4 11 43
1901274N08132 1901 34 WP MM NOT_NAMED 1901-10-05 04:00:00 NR 24.7000 124.000 main 204 204 __________O___ -1 24.7000 124.000 4 13 44
1901274N08132 1901 34 WP MM NOT_NAMED 1901-10-05 06:00:00 NR 25.0109 124.345 main 231 241 __________P___ -1 25.0109 124.345 4 14 45
1901274N08132 1901 34 WP MM NOT_NAMED 1901-10-05 09:00:00 NR 25.5149 124.901 main 296 296 __________P___ -1 25.5149 124.901 4 15 44
1901274N08132 1901 34 WP MM NOT_NAMED 1901-10-05 12:00:00 NR 26.0524 125.473 main 371 371 __________P___ -1 26.0524 125.473 4 15 43
1901274N08132 1901 34 WP MM NOT_NAMED 1901-10-05 15:00:00 NR 26.6111 126.026 main 438 447 __________P___ -1 26.6111 126.026 4 15 41
1901274N08132 1901 34 WP MM NOT_NAMED 1901-10-05 16:00:00 NR 26.8000 126.200 main 465 465 __________O___ -1 26.8000 126.200 4 15 38
1901274N08132 1901 34 WP MM NOT_NAMED 1901-10-05 18:00:00 NR 27.1796 126.527 main 493 489 __________P___ -1 27.1796 126.527 4 14 36
1901274N08132 1901 34 WP MM NOT_NAMED 1901-10-05 21:00:00 NR 27.7528 126.974 main 489 421 __________P___ -1 27.7528 126.974 4 14 33
1901274N08132 1901 34 WP MM NOT_NAMED 1901-10-06 00:00:00 NR 28.3293 127.382 main 421 345 __________P___ -1 28.3293 127.382 4 14 31
1901274N08132 1901 34 WP MM NOT_NAMED 1901-10-06 03:00:00 NR 28.9073 127.772 main 345 321 __________P___ -1 28.9073 127.772 4 13 30
1901274N08132 1901 34 WP MM NOT_NAMED 1901-10-06 04:00:00 NR 29.1000 127.900 main 321 __________O___ -1 29.1000 127.900 4 13 31

デジタル台風データ・検索

IBTrACS Databaseについて

本データベースは、米国NOAAが公開する1842年以降の世界の熱帯低気圧のベストトラックデータアーカイブInternational Best Track Archive for Climate Stewardship (IBTrACS)を、ウェブで閲覧しやすい形式に変換したものです。

最終更新日:2021-12-06